createdAt,value
2023-04-09T00:01:43.532Z,14.43
2023-04-09T00:04:46.648Z,14.30
2023-04-09T00:07:49.723Z,13.52
2023-04-09T00:10:53.359Z,14.20
2023-04-09T00:13:57.449Z,14.47
2023-04-09T00:17:00.663Z,13.57
2023-04-09T00:20:04.222Z,14.30
2023-04-09T00:23:07.228Z,12.98
2023-04-09T00:26:10.531Z,13.00
2023-04-09T00:29:14.063Z,13.10
2023-04-09T00:32:18.499Z,12.63
2023-04-09T00:35:21.614Z,12.35
2023-04-09T00:38:24.567Z,12.05
2023-04-09T00:41:27.480Z,12.90
2023-04-09T00:44:30.461Z,12.33
2023-04-09T00:47:33.420Z,11.93
2023-04-09T00:50:36.542Z,11.93
2023-04-09T00:53:39.512Z,11.27
2023-04-09T00:56:42.512Z,12.20
2023-04-09T00:59:45.833Z,11.70
2023-04-09T01:02:49.154Z,12.33
2023-04-09T01:06:11.236Z,12.18
2023-04-09T01:09:43.465Z,11.63
2023-04-09T01:13:25.648Z,11.73
2023-04-09T01:16:29.760Z,11.17
2023-04-09T01:19:44.596Z,11.43
2023-04-09T01:23:06.335Z,10.88
2023-04-09T01:26:15.557Z,11.20
2023-04-09T01:29:26.108Z,11.93
2023-04-09T01:32:32.430Z,11.53
2023-04-09T01:35:35.576Z,10.60
2023-04-09T01:38:41.493Z,12.02
2023-04-09T01:41:44.438Z,10.90
2023-04-09T01:44:47.378Z,11.27
2023-04-09T01:47:50.426Z,10.77
2023-04-09T01:50:53.422Z,11.00
2023-04-09T01:53:56.458Z,10.43
2023-04-09T01:56:59.489Z,9.50
2023-04-09T02:00:02.443Z,11.00
2023-04-09T02:03:29.889Z,10.47
2023-04-09T02:06:39.461Z,11.40
2023-04-09T02:09:42.426Z,10.68
2023-04-09T02:12:48.472Z,10.80
2023-04-09T02:15:51.526Z,11.15
2023-04-09T02:18:56.010Z,10.47
2023-04-09T02:21:58.984Z,11.27
2023-04-09T02:25:01.973Z,11.45
2023-04-09T02:28:05.052Z,12.50
2023-04-09T02:31:08.268Z,12.48
2023-04-09T02:34:11.266Z,11.07
2023-04-09T02:37:15.479Z,11.07
2023-04-09T02:40:18.510Z,10.43
2023-04-09T02:43:21.464Z,11.10
2023-04-09T02:46:24.482Z,10.95
2023-04-09T02:49:27.552Z,10.63
2023-04-09T02:52:30.568Z,11.93
2023-04-09T02:55:33.929Z,10.23
2023-04-09T02:58:36.931Z,9.43
2023-04-09T03:01:39.969Z,9.82
2023-04-09T03:04:43.029Z,10.47
2023-04-09T03:07:47.368Z,10.57
2023-04-09T03:10:50.519Z,9.60
2023-04-09T03:13:53.525Z,11.15
2023-04-09T03:16:56.479Z,10.73
2023-04-09T03:19:59.474Z,10.00
2023-04-09T03:23:10.373Z,10.33
2023-04-09T03:26:17.978Z,10.45
2023-04-09T03:29:24.243Z,10.52
2023-04-09T03:32:27.406Z,10.57
2023-04-09T03:35:31.458Z,11.23
2023-04-09T03:38:36.351Z,10.70
2023-04-09T03:41:45.863Z,10.82
2023-04-09T03:44:54.880Z,10.35
2023-04-09T03:48:11.431Z,10.75
2023-04-09T03:51:15.649Z,9.53
2023-04-09T03:54:24.868Z,9.60
2023-04-09T03:57:29.451Z,10.82
2023-04-09T04:00:33.171Z,9.77
2023-04-09T04:04:01.004Z,10.77
2023-04-09T04:07:27.233Z,10.83
2023-04-09T04:10:35.883Z,10.23
2023-04-09T04:13:39.064Z,10.38
2023-04-09T04:16:45.136Z,11.00
2023-04-09T04:19:52.454Z,10.32
2023-04-09T04:22:56.108Z,10.03
2023-04-09T04:26:00.667Z,9.90
2023-04-09T04:29:11.357Z,9.40
2023-04-09T04:32:30.503Z,9.57
2023-04-09T04:35:34.496Z,10.18
2023-04-09T04:38:41.473Z,9.80
2023-04-09T04:41:50.664Z,10.53
2023-04-09T04:44:58.430Z,10.18
2023-04-09T04:48:24.752Z,10.27
2023-04-09T04:51:29.217Z,11.40
2023-04-09T04:54:40.901Z,10.87
2023-04-09T04:57:44.496Z,10.00
2023-04-09T05:00:48.548Z,10.68
2023-04-09T05:03:51.810Z,11.07
2023-04-09T05:07:12.377Z,10.48
2023-04-09T05:10:23.390Z,9.90
2023-04-09T05:13:26.554Z,9.90
2023-04-09T05:16:33.309Z,9.88
2023-04-09T05:19:41.098Z,9.98
2023-04-09T05:22:45.495Z,9.98
2023-04-09T05:25:50.265Z,10.13
2023-04-09T05:29:17.352Z,9.90
2023-04-09T05:32:20.447Z,11.10
2023-04-09T05:35:23.524Z,10.27
2023-04-09T05:38:26.692Z,10.23
2023-04-09T05:41:33.792Z,10.83
2023-04-09T05:44:52.411Z,10.00
2023-04-09T05:47:57.401Z,10.55
2023-04-09T05:51:00.986Z,11.25
2023-04-09T05:54:05.510Z,10.50
2023-04-09T05:57:12.604Z,10.53
2023-04-09T06:00:20.084Z,11.07
2023-04-09T06:03:25.090Z,11.30
2023-04-09T06:06:28.170Z,11.32
2023-04-09T06:09:31.158Z,9.55
2023-04-09T06:12:35.834Z,9.27
2023-04-09T06:15:39.921Z,10.67
2023-04-09T06:18:42.940Z,10.52
2023-04-09T06:21:46.166Z,9.90
2023-04-09T06:24:49.096Z,11.13
2023-04-09T06:27:52.236Z,11.17
2023-04-09T06:30:55.557Z,8.97
2023-04-09T06:33:58.592Z,9.50
2023-04-09T06:37:01.576Z,10.20
2023-04-09T06:40:04.806Z,10.80
2023-04-09T06:43:07.773Z,10.00
2023-04-09T06:46:21.332Z,9.40
2023-04-09T06:49:24.348Z,9.82
2023-04-09T06:52:27.539Z,9.35
2023-04-09T06:55:30.572Z,8.98
2023-04-09T06:58:33.737Z,10.17
2023-04-09T07:01:37.899Z,9.53
2023-04-09T07:04:41.566Z,9.23
2023-04-09T07:07:44.663Z,8.27
2023-04-09T07:10:47.802Z,9.00
2023-04-09T07:13:50.976Z,9.70
2023-04-09T07:16:54.212Z,9.47
2023-04-09T07:19:57.166Z,10.00
2023-04-09T07:23:00.353Z,9.30
2023-04-09T07:26:04.913Z,8.80
2023-04-09T07:29:07.846Z,9.33
2023-04-09T07:32:10.778Z,8.63
2023-04-09T07:35:13.726Z,8.90
2023-04-09T07:38:16.812Z,9.27
2023-04-09T07:41:19.838Z,10.02
2023-04-09T07:44:23.304Z,9.73
2023-04-09T07:47:26.360Z,9.80
2023-04-09T07:50:29.387Z,9.52
2023-04-09T07:53:32.346Z,8.55
2023-04-09T07:56:35.517Z,8.18
2023-04-09T07:59:38.555Z,8.27
2023-04-09T08:02:42.148Z,9.13
2023-04-09T08:05:45.653Z,10.23
2023-04-09T08:08:48.619Z,9.25
2023-04-09T08:11:51.610Z,10.02
2023-04-09T08:14:54.540Z,9.20
2023-04-09T08:17:57.729Z,9.33
2023-04-09T08:21:04.072Z,8.32
2023-04-09T08:24:07.595Z,7.78
2023-04-09T08:27:11.032Z,9.27
2023-04-09T08:30:15.483Z,8.10
2023-04-09T08:33:19.844Z,9.77
2023-04-09T08:36:22.886Z,8.93
2023-04-09T08:39:26.236Z,8.18
2023-04-09T08:42:29.203Z,8.38
2023-04-09T08:45:32.200Z,8.63
2023-04-09T08:48:35.290Z,9.50
2023-04-09T08:51:39.404Z,8.18
2023-04-09T08:54:42.412Z,8.40
2023-04-09T08:57:45.388Z,9.93
2023-04-09T09:00:48.357Z,9.00
2023-04-09T09:04:01.154Z,10.20
2023-04-09T09:07:07.216Z,9.43
2023-04-09T09:10:10.522Z,8.05
2023-04-09T09:13:21.346Z,8.73
2023-04-09T09:16:24.333Z,7.77
2023-04-09T09:19:27.296Z,8.90
2023-04-09T09:22:30.360Z,8.68
2023-04-09T09:25:39.159Z,7.28
2023-04-09T09:28:42.393Z,7.53
2023-04-09T09:31:52.640Z,8.83
2023-04-09T09:35:03.224Z,9.27
2023-04-09T09:38:06.318Z,9.35
2023-04-09T09:41:19.492Z,8.52
2023-04-09T09:44:32.849Z,7.93
2023-04-09T09:47:36.597Z,8.03
2023-04-09T09:50:41.976Z,9.10
2023-04-09T09:53:47.123Z,8.38
2023-04-09T09:56:51.696Z,8.02
2023-04-09T10:00:01.020Z,8.02
2023-04-09T10:03:16.024Z,7.90
2023-04-09T10:06:19.049Z,8.40
2023-04-09T10:09:22.059Z,7.90
2023-04-09T10:12:25.097Z,7.53
2023-04-09T10:15:31.160Z,8.25
2023-04-09T10:18:34.766Z,7.97
2023-04-09T10:21:49.403Z,8.60
2023-04-09T10:24:52.773Z,9.02
2023-04-09T10:28:02.376Z,8.07
2023-04-09T10:31:06.763Z,7.00
2023-04-09T10:34:10.917Z,7.87
2023-04-09T10:37:27.026Z,8.13
2023-04-09T10:40:29.964Z,8.43
2023-04-09T10:43:33.895Z,7.22
2023-04-09T10:46:37.092Z,7.63
2023-04-09T10:49:41.046Z,7.73
2023-04-09T10:52:44.483Z,7.97
2023-04-09T10:55:51.747Z,8.07
2023-04-09T10:58:54.693Z,8.07
2023-04-09T11:01:57.747Z,7.60
2023-04-09T11:05:03.815Z,7.60
2023-04-09T11:08:11.648Z,7.70
2023-04-09T11:11:14.612Z,8.35
2023-04-09T11:14:20.772Z,8.77
2023-04-09T11:17:23.755Z,7.75
2023-04-09T11:20:27.102Z,8.07
2023-04-09T11:23:30.968Z,7.10
2023-04-09T11:26:37.121Z,7.50
2023-04-09T11:29:40.103Z,8.23
2023-04-09T11:32:43.295Z,7.53
2023-04-09T11:35:46.506Z,7.30
2023-04-09T11:38:51.094Z,7.87
2023-04-09T11:41:54.256Z,8.40
2023-04-09T11:44:57.195Z,7.88
2023-04-09T11:48:00.606Z,8.25
2023-04-09T11:51:04.110Z,8.20
2023-04-09T11:54:07.160Z,8.60
2023-04-09T11:57:10.254Z,8.45
2023-04-09T12:00:17.076Z,8.00
2023-04-09T12:03:21.620Z,7.65
2023-04-09T12:06:25.151Z,8.20
2023-04-09T12:09:28.187Z,8.63
2023-04-09T12:12:31.308Z,8.77
2023-04-09T12:15:35.922Z,7.72
2023-04-09T12:18:39.150Z,9.60
2023-04-09T12:21:55.798Z,9.00
2023-04-09T12:24:58.708Z,9.50
2023-04-09T12:28:02.175Z,9.07
2023-04-09T12:31:05.175Z,8.80
2023-04-09T12:34:08.252Z,8.25
2023-04-09T12:37:11.167Z,8.90
2023-04-09T12:40:14.367Z,8.87
2023-04-09T12:43:17.312Z,9.95
2023-04-09T12:46:20.497Z,10.38
2023-04-09T12:49:23.516Z,10.05
2023-04-09T12:52:26.481Z,9.23
2023-04-09T12:55:29.573Z,9.47
2023-04-09T12:58:32.552Z,10.57
2023-04-09T13:01:35.645Z,9.35
2023-04-09T13:04:38.719Z,9.70
2023-04-09T13:07:43.513Z,8.53
2023-04-09T13:10:46.609Z,8.83
2023-04-09T13:13:49.546Z,9.68
2023-04-09T13:16:52.759Z,9.90
2023-04-09T13:19:56.146Z,10.10
2023-04-09T13:22:59.126Z,9.03
2023-04-09T13:26:02.124Z,8.23
2023-04-09T13:29:05.083Z,8.18
2023-04-09T13:32:08.155Z,8.45
2023-04-09T13:35:11.490Z,9.30
2023-04-09T13:38:14.426Z,7.90
2023-04-09T13:41:17.371Z,7.83
2023-04-09T13:44:20.341Z,8.15
2023-04-09T13:47:24.068Z,8.43
2023-04-09T13:50:27.183Z,8.40
2023-04-09T13:53:30.110Z,8.47
2023-04-09T13:56:33.054Z,9.03
2023-04-09T13:59:36.211Z,7.93
2023-04-09T14:02:39.283Z,8.70
2023-04-09T14:05:42.269Z,8.30
2023-04-09T14:08:45.415Z,8.30
2023-04-09T14:11:49.433Z,8.83
2023-04-09T14:14:52.775Z,8.02
2023-04-09T14:17:56.090Z,7.88
2023-04-09T14:20:59.397Z,7.80
2023-04-09T14:24:02.348Z,7.73
2023-04-09T14:27:06.101Z,7.63
2023-04-09T14:30:10.853Z,8.57
2023-04-09T14:33:13.806Z,9.80
2023-04-09T14:36:17.256Z,9.10
2023-04-09T14:39:20.257Z,7.93
2023-04-09T14:42:23.328Z,8.50
2023-04-09T14:45:26.625Z,9.25
2023-04-09T14:48:30.454Z,9.13
2023-04-09T14:51:33.452Z,8.35
2023-04-09T14:54:37.874Z,8.13
2023-04-09T14:57:41.916Z,8.53
2023-04-09T15:00:45.147Z,8.80
2023-04-09T15:03:48.226Z,8.48
2023-04-09T15:06:51.527Z,8.80
2023-04-09T15:09:54.563Z,8.30
2023-04-09T15:12:57.541Z,8.67
2023-04-09T15:16:00.612Z,9.77
2023-04-09T15:19:03.800Z,8.02
2023-04-09T15:22:06.735Z,8.40
2023-04-09T15:25:10.366Z,10.10
2023-04-09T15:28:14.546Z,8.37
2023-04-09T15:31:17.567Z,7.93
2023-04-09T15:34:20.582Z,9.20
2023-04-09T15:37:23.866Z,8.45
2023-04-09T15:40:28.754Z,10.47
2023-04-09T15:43:31.838Z,10.50
2023-04-09T15:46:34.783Z,9.75
2023-04-09T15:49:37.786Z,11.68
2023-04-09T15:52:40.802Z,10.65
2023-04-09T15:55:43.849Z,9.30
2023-04-09T15:58:46.856Z,8.77
2023-04-09T16:01:49.938Z,9.32
2023-04-09T16:04:52.921Z,10.00
2023-04-09T16:07:58.279Z,11.68
2023-04-09T16:11:03.107Z,12.77
2023-04-09T16:14:06.150Z,12.37
2023-04-09T16:17:10.352Z,14.48
2023-04-09T16:20:13.462Z,15.48
2023-04-09T16:23:16.484Z,14.23
2023-04-09T16:26:19.494Z,13.50
2023-04-09T16:29:22.428Z,11.30
2023-04-09T16:32:25.500Z,11.10
2023-04-09T16:35:28.615Z,9.82
2023-04-09T16:38:31.525Z,9.82
2023-04-09T16:41:36.510Z,9.93
2023-04-09T16:44:39.990Z,9.50
2023-04-09T16:47:42.917Z,10.85
2023-04-09T16:50:45.946Z,10.15
2023-04-09T16:53:48.933Z,11.43
2023-04-09T16:56:51.870Z,12.13
2023-04-09T16:59:55.058Z,10.93
2023-04-09T17:02:58.137Z,11.00
2023-04-09T17:06:01.808Z,12.07
2023-04-09T17:09:06.491Z,11.40
2023-04-09T17:12:09.904Z,12.87
2023-04-09T17:15:12.932Z,12.50
2023-04-09T17:18:16.112Z,11.98
2023-04-09T17:21:19.029Z,11.95
2023-04-09T17:24:21.995Z,12.15
2023-04-09T17:27:24.938Z,13.97
2023-04-09T17:30:28.244Z,13.37
2023-04-09T17:33:31.213Z,13.38
2023-04-09T17:36:34.417Z,15.48
2023-04-09T17:39:37.372Z,17.27
2023-04-09T17:42:40.924Z,17.33
2023-04-09T17:45:43.926Z,17.27
2023-04-09T17:48:46.886Z,17.58
2023-04-09T17:51:49.940Z,17.65
2023-04-09T17:54:53.142Z,18.42
2023-04-09T17:57:56.104Z,17.17
2023-04-09T18:00:59.694Z,18.13
2023-04-09T18:04:02.936Z,17.92
2023-04-09T18:07:06.124Z,19.13
2023-04-09T18:10:09.395Z,20.15
2023-04-09T18:13:12.353Z,20.83
2023-04-09T18:16:15.430Z,20.07
2023-04-09T18:19:18.549Z,19.45
2023-04-09T18:22:21.917Z,19.25
2023-04-09T18:25:25.009Z,21.27
2023-04-09T18:28:28.225Z,20.70
2023-04-09T18:31:31.268Z,21.80
2023-04-09T18:34:34.272Z,23.30
2023-04-09T18:37:38.090Z,22.83
2023-04-09T18:40:42.625Z,23.77
2023-04-09T18:43:45.844Z,23.33
2023-04-09T18:46:48.860Z,21.10
2023-04-09T18:49:51.866Z,19.30
2023-04-09T18:52:54.791Z,19.58
2023-04-09T18:55:57.827Z,20.63
2023-04-09T18:59:01.083Z,18.27
2023-04-09T19:02:05.311Z,18.67
2023-04-09T19:05:08.989Z,18.63
2023-04-09T19:08:11.968Z,18.15
2023-04-09T19:11:15.373Z,19.33
2023-04-09T19:14:18.355Z,19.93
2023-04-09T19:17:21.369Z,17.97
2023-04-09T19:20:24.332Z,17.85
2023-04-09T19:23:27.610Z,17.30
2023-04-09T19:26:30.964Z,17.70
2023-04-09T19:29:33.944Z,16.30
2023-04-09T19:32:37.098Z,15.80
2023-04-09T19:35:41.140Z,17.30
2023-04-09T19:38:44.203Z,16.42
2023-04-09T19:41:47.180Z,15.65
2023-04-09T19:44:50.249Z,15.97
2023-04-09T19:47:55.515Z,16.50
2023-04-09T19:50:58.917Z,16.70
2023-04-09T19:54:01.983Z,16.67
2023-04-09T19:57:05.036Z,15.82
2023-04-09T20:00:08.860Z,15.77
2023-04-09T20:03:14.320Z,16.33
2023-04-09T20:06:18.282Z,17.48
2023-04-09T20:09:23.925Z,17.33
2023-04-09T20:12:29.496Z,16.20
2023-04-09T20:15:32.942Z,19.53
2023-04-09T20:18:35.928Z,16.40
2023-04-09T20:21:38.948Z,15.30
2023-04-09T20:24:42.897Z,16.10
2023-04-09T20:27:45.916Z,16.15
2023-04-09T20:30:49.335Z,16.00
2023-04-09T20:33:52.320Z,16.37
2023-04-09T20:36:55.694Z,18.52
2023-04-09T20:39:59.942Z,25.02
2023-04-09T20:43:03.097Z,19.77
2023-04-09T20:46:06.329Z,19.47
2023-04-09T20:49:09.398Z,19.40
2023-04-09T20:52:12.350Z,18.95
2023-04-09T20:55:15.363Z,18.35
2023-04-09T20:58:18.586Z,17.33
2023-04-09T21:01:22.498Z,19.00
2023-04-09T21:04:26.178Z,18.33
2023-04-09T21:07:29.247Z,18.75
2023-04-09T21:10:32.190Z,19.80
2023-04-09T21:13:50.394Z,19.20
2023-04-09T21:16:57.412Z,17.77
2023-04-09T21:20:01.076Z,16.97
2023-04-09T21:23:04.034Z,21.13
2023-04-09T21:26:07.261Z,21.98
2023-04-09T21:29:10.551Z,20.58
2023-04-09T21:32:13.468Z,21.63
2023-04-09T21:35:16.515Z,19.00
2023-04-09T21:38:19.566Z,19.95
2023-04-09T21:41:23.595Z,18.73
2023-04-09T21:44:26.572Z,20.40
2023-04-09T21:47:29.602Z,20.53
2023-04-09T21:50:33.222Z,19.47
2023-04-09T21:53:36.241Z,20.40
2023-04-09T21:56:39.345Z,20.85
2023-04-09T21:59:42.333Z,20.60
2023-04-09T22:02:51.956Z,19.20
2023-04-09T22:05:54.967Z,18.77
2023-04-09T22:08:58.329Z,17.83
2023-04-09T22:12:02.826Z,17.10
2023-04-09T22:15:06.437Z,17.10
2023-04-09T22:18:09.368Z,16.53
2023-04-09T22:21:18.537Z,17.07
2023-04-09T22:24:26.909Z,15.52
2023-04-09T22:27:30.139Z,15.77
2023-04-09T22:30:33.068Z,16.73
2023-04-09T22:33:36.096Z,15.90
2023-04-09T22:36:39.061Z,16.07
2023-04-09T22:39:42.033Z,16.27
2023-04-09T22:42:48.313Z,17.00
2023-04-09T22:45:54.929Z,15.65
2023-04-09T22:49:04.533Z,15.90
2023-04-09T22:52:08.435Z,15.13
2023-04-09T22:55:13.624Z,16.13
2023-04-09T22:58:16.982Z,15.68
2023-04-09T23:01:22.269Z,15.48
2023-04-09T23:04:25.620Z,15.23
2023-04-09T23:07:28.978Z,15.13
2023-04-09T23:10:33.082Z,16.80
2023-04-09T23:13:36.072Z,16.00
2023-04-09T23:16:39.082Z,16.13
2023-04-09T23:19:42.418Z,16.03
2023-04-09T23:22:47.205Z,15.20
2023-04-09T23:25:50.131Z,15.35
2023-04-09T23:28:53.403Z,16.50
2023-04-09T23:31:56.612Z,14.23
2023-04-09T23:35:01.280Z,14.63
2023-04-09T23:38:04.278Z,14.43
2023-04-09T23:41:07.336Z,14.73
2023-04-09T23:44:10.293Z,14.60
2023-04-09T23:47:13.756Z,15.00
2023-04-09T23:50:17.753Z,14.90
2023-04-09T23:53:21.292Z,14.93
2023-04-09T23:56:25.150Z,14.63
2023-04-09T23:59:31.118Z,14.02
